Time,TemperatureF,DewpointF,PressureIn,WindDirection,WindDirectionDegrees,WindSpeedMPH,WindSpeedGustMPH,Humidity,HourlyPrecipIn,Conditions,Clouds,dailyrainin,SoftwareType,DateUTC
2013-03-02 00:00:00,33.3,25.8,29.21,North,0,3.1,4.3,74,0.00,,,0.00,WUHU216HW,2013-03-02 05:00:00,
2013-03-02 00:01:00,33.1,25.7,29.21,North,0,2.5,4.0,74,0.00,,,0.00,WUHU216HW,2013-03-02 05:01:00,
2013-03-02 00:06:00,33.3,25.8,29.21,NW,315,2.5,4.0,74,0.00,,,0.00,WUHU216HW,2013-03-02 05:06:00,
2013-03-02 00:11:00,33.1,25.7,29.21,NNW,338,2.5,4.0,74,0.00,,,0.00,WUHU216HW,2013-03-02 05:11:00,
2013-03-02 00:16:00,33.1,25.7,29.21,ENE,68,0.7,6.0,74,0.00,,,0.00,WUHU216HW,2013-03-02 05:16:00,
2013-03-02 00:21:00,33.1,25.7,29.21,NNW,338,3.1,6.0,74,0.00,,,0.00,WUHU216HW,2013-03-02 05:21:00,
2013-03-02 00:26:00,33.1,26.0,29.21,North,0,3.8,5.1,75,0.00,,,0.00,WUHU216HW,2013-03-02 05:26:00,
2013-03-02 00:31:00,33.1,26.0,29.21,NNE,23,4.3,9.4,75,0.00,,,0.00,WUHU216HW,2013-03-02 05:31:00,
2013-03-02 00:36:00,33.1,25.7,29.21,NW,315,1.6,9.4,74,0.00,,,0.00,WUHU216HW,2013-03-02 05:36:00,
2013-03-02 00:42:00,33.1,26.0,29.20,NNW,338,1.6,5.4,75,0.00,,,0.00,WUHU216HW,2013-03-02 05:42:00,
2013-03-02 00:47:00,33.1,26.0,29.21,WNW,293,0.0,5.4,75,0.00,,,0.00,WUHU216HW,2013-03-02 05:47:00,
2013-03-02 00:52:00,32.9,25.8,29.21,NW,315,0.4,5.4,75,0.00,,,0.00,WUHU216HW,2013-03-02 05:52:00,
2013-03-02 00:57:00,32.9,25.8,29.20,NW,315,0.7,3.4,75,0.00,,,0.00,WUHU216HW,2013-03-02 05:57:00,
2013-03-02 01:02:00,32.8,25.7,29.20,NNW,338,3.6,4.0,75,0.00,,,0.00,WUHU216HW,2013-03-02 06:02:00,
2013-03-02 01:07:00,32.8,26.0,29.20,NNW,338,1.8,4.0,76,0.00,,,0.00,WUHU216HW,2013-03-02 06:07:00,
2013-03-02 01:12:00,32.8,26.0,29.20,NW,315,1.1,3.6,76,0.00,,,0.00,WUHU216HW,2013-03-02 06:12:00,
2013-03-02 01:17:00,32.8,26.0,29.20,NE,45,0.4,3.1,76,0.00,,,0.00,WUHU216HW,2013-03-02 06:17:00,
2013-03-02 01:22:00,32.6,25.8,29.20,NNW,338,0.4,3.1,76,0.00,,,0.00,WUHU216HW,2013-03-02 06:22:00,
2013-03-02 01:27:00,32.6,25.8,29.20,NW,315,0.7,3.4,76,0.00,,,0.00,WUHU216HW,2013-03-02 06:27:00,
2013-03-02 01:32:00,32.6,26.2,29.20,NNW,338,1.3,3.4,77,0.00,,,0.00,WUHU216HW,2013-03-02 06:32:00,
2013-03-02 01:38:00,32.4,26.0,29.20,WNW,293,1.3,1.6,77,0.00,,,0.00,WUHU216HW,2013-03-02 06:38:00,
2013-03-02 01:43:00,32.4,26.0,29.20,NNW,338,2.5,2.5,77,0.00,,,0.00,WUHU216HW,2013-03-02 06:43:00,
2013-03-02 01:48:00,32.4,26.0,29.20,West,270,0.9,4.0,77,0.00,,,0.00,WUHU216HW,2013-03-02 06:48:00,
2013-03-02 01:53:00,32.4,26.0,29.20,North,0,0.2,4.0,77,0.00,,,0.00,WUHU216HW,2013-03-02 06:53:00,
2013-03-02 01:58:00,32.2,25.8,29.20,WNW,293,0.4,3.4,77,0.00,,,0.00,WUHU216HW,2013-03-02 06:58:00,
2013-03-02 02:03:00,32.4,26.3,29.20,NNW,338,2.7,3.4,78,0.00,,,0.00,WUHU216HW,2013-03-02 07:03:00,
2013-03-02 02:08:00,32.4,26.3,29.19,WNW,293,1.8,3.6,78,0.00,,,0.00,WUHU216HW,2013-03-02 07:08:00,
2013-03-02 02:13:00,32.4,26.3,29.19,NW,315,2.2,4.3,78,0.00,,,0.00,WUHU216HW,2013-03-02 07:13:00,
2013-03-02 02:18:00,32.4,26.3,29.19,North,0,0.2,4.3,78,0.00,,,0.00,WUHU216HW,2013-03-02 07:18:00,
2013-03-02 02:23:00,32.4,26.3,29.19,WNW,293,2.5,5.4,78,0.00,,,0.00,WUHU216HW,2013-03-02 07:23:00,
2013-03-02 02:28:00,32.2,26.2,29.19,North,0,2.7,5.6,78,0.00,,,0.00,WUHU216HW,2013-03-02 07:28:00,
2013-03-02 02:33:00,32.2,26.2,29.19,NNE,23,2.9,5.6,78,0.00,,,0.00,WUHU216HW,2013-03-02 07:33:00,
2013-03-02 02:38:00,32.2,26.2,29.19,NW,315,2.0,3.8,78,0.00,,,0.00,WUHU216HW,2013-03-02 07:38:00,
2013-03-02 02:43:00,32.2,26.2,29.19,North,0,1.8,3.6,78,0.00,,,0.00,WUHU216HW,2013-03-02 07:43:00,
2013-03-02 02:48:00,32.2,26.2,29.19,WSW,248,1.1,4.0,78,0.00,,,0.00,WUHU216HW,2013-03-02 07:48:00,
2013-03-02 02:54:00,32.2,26.2,29.19,NNW,338,0.9,5.8,78,0.00,,,0.00,WUHU216HW,2013-03-02 07:54:00,
2013-03-02 02:59:00,32.0,26.0,29.19,NW,315,1.8,5.8,78,0.00,,,0.00,WUHU216HW,2013-03-02 07:59:00,
2013-03-02 03:04:00,32.0,26.0,29.19,North,0,0.7,3.1,78,0.00,,,0.00,WUHU216HW,2013-03-02 08:04:00,
2013-03-02 03:09:00,32.0,26.0,29.19,NNW,338,2.9,4.7,78,0.00,,,0.00,WUHU216HW,2013-03-02 08:09:00,
2013-03-02 03:14:00,32.0,26.0,29.19,NNE,23,1.8,6.0,78,0.00,,,0.00,WUHU216HW,2013-03-02 08:14:00,
2013-03-02 03:19:00,32.0,26.0,29.19,WNW,293,2.5,6.5,78,0.00,,,0.00,WUHU216HW,2013-03-02 08:19:00,
2013-03-02 03:24:00,32.0,26.0,29.19,North,0,3.4,6.5,78,0.00,,,0.00,WUHU216HW,2013-03-02 08:24:00,
2013-03-02 03:29:00,32.0,26.0,29.19,North,0,5.4,8.1,78,0.00,,,0.00,WUHU216HW,2013-03-02 08:29:00,
2013-03-02 03:34:00,32.0,26.0,29.19,WNW,293,1.1,8.1,78,0.00,,,0.00,WUHU216HW,2013-03-02 08:34:00,
2013-03-02 03:39:00,32.0,26.0,29.19,WNW,293,3.1,6.0,78,0.00,,,0.00,WUHU216HW,2013-03-02 08:39:00,
2013-03-02 03:44:00,31.9,25.8,29.19,ENE,68,0.4,4.5,78,0.00,,,0.00,WUHU216HW,2013-03-02 08:44:00,
2013-03-02 03:49:00,31.7,25.7,29.19,WNW,293,2.7,5.4,78,0.00,,,0.00,WUHU216HW,2013-03-02 08:49:00,
2013-03-02 03:54:00,31.7,25.7,29.19,West,270,1.1,7.6,78,0.00,,,0.00,WUHU216HW,2013-03-02 08:54:00,
2013-03-02 04:00:00,31.7,25.7,29.19,North,0,1.6,7.6,78,0.00,,,0.00,WUHU216HW,2013-03-02 09:00:00,
2013-03-02 04:05:00,31.5,25.5,29.19,NNE,23,4.3,5.4,78,0.00,,,0.00,WUHU216HW,2013-03-02 09:05:00,
2013-03-02 04:10:00,31.5,25.5,29.19,West,270,2.5,5.4,78,0.00,,,0.00,WUHU216HW,2013-03-02 09:10:00,
2013-03-02 04:15:00,31.3,25.3,29.19,NNW,338,1.6,5.4,78,0.00,,,0.00,WUHU216HW,2013-03-02 09:15:00,
2013-03-02 04:20:00,31.3,25.3,29.19,NNW,338,0.4,4.3,78,0.00,,,0.00,WUHU216HW,2013-03-02 09:20:00,
2013-03-02 04:25:00,31.3,25.3,29.19,NNW,338,1.6,4.3,78,0.00,,,0.00,WUHU216HW,2013-03-02 09:25:00,
2013-03-02 04:30:00,31.3,25.3,29.19,NW,315,2.5,2.9,78,0.00,,,0.00,WUHU216HW,2013-03-02 09:30:00,
2013-03-02 04:35:00,31.3,25.3,29.19,NNW,338,2.5,5.4,78,0.00,,,0.00,WUHU216HW,2013-03-02 09:35:00,
2013-03-02 04:40:00,31.3,25.3,29.19,NW,315,2.5,5.4,78,0.00,,,0.00,WUHU216HW,2013-03-02 09:40:00,
2013-03-02 04:45:00,31.3,25.3,29.19,NNW,338,0.4,3.1,78,0.00,,,0.00,WUHU216HW,2013-03-02 09:45:00,
2013-03-02 04:50:00,31.1,25.1,29.19,NNW,338,0.7,4.7,78,0.00,,,0.00,WUHU216HW,2013-03-02 09:50:00,
2013-03-02 04:55:00,31.1,25.1,29.19,NNW,338,1.8,7.2,78,0.00,,,0.00,WUHU216HW,2013-03-02 09:55:00,
2013-03-02 05:00:00,31.3,25.3,29.19,NNW,338,2.0,7.2,78,0.00,,,0.00,WUHU216HW,2013-03-02 10:00:00,
2013-03-02 05:05:00,31.3,25.3,29.19,North,0,0.4,4.9,78,0.00,,,0.00,WUHU216HW,2013-03-02 10:05:00,
2013-03-02 05:11:00,31.3,25.3,29.19,WNW,293,1.8,5.6,78,0.00,,,0.00,WUHU216HW,2013-03-02 10:11:00,
2013-03-02 05:16:00,31.3,25.3,29.19,NNE,23,2.2,5.6,78,0.00,,,0.00,WUHU216HW,2013-03-02 10:16:00,
2013-03-02 05:21:00,31.3,25.3,29.19,NW,315,0.9,5.1,78,0.00,,,0.00,WUHU216HW,2013-03-02 10:21:00,
2013-03-02 05:26:00,31.3,25.3,29.19,North,0,0.9,5.1,78,0.00,,,0.00,WUHU216HW,2013-03-02 10:26:00,
2013-03-02 05:31:00,31.3,25.3,29.19,NNE,23,3.1,3.4,78,0.00,,,0.00,WUHU216HW,2013-03-02 10:31:00,
2013-03-02 05:37:00,31.1,25.1,29.19,SE,135,2.0,4.3,78,0.00,,,0.00,WUHU216HW,2013-03-02 10:37:00,
2013-03-02 05:42:00,31.1,25.1,29.19,NW,315,1.1,5.4,78,0.00,,,0.00,WUHU216HW,2013-03-02 10:42:00,
2013-03-02 05:47:00,31.1,25.1,29.19,North,0,0.4,5.4,78,0.00,,,0.00,WUHU216HW,2013-03-02 10:47:00,
2013-03-02 05:52:00,31.0,24.9,29.19,WNW,293,1.1,4.7,78,0.00,,,0.00,WUHU216HW,2013-03-02 10:52:00,
2013-03-02 05:57:00,30.8,24.8,29.19,WSW,248,0.9,4.7,78,0.00,,,0.00,WUHU216HW,2013-03-02 10:57:00,
2013-03-02 06:02:00,30.8,24.8,29.19,NNE,23,0.0,3.4,78,0.00,,,0.00,WUHU216HW,2013-03-02 11:02:00,
2013-03-02 06:07:00,30.8,24.8,29.19,NNW,338,0.4,3.4,78,0.00,,,0.00,WUHU216HW,2013-03-02 11:07:00,
2013-03-02 06:12:00,30.6,24.6,29.19,NNW,338,1.8,3.4,78,0.00,,,0.00,WUHU216HW,2013-03-02 11:12:00,
2013-03-02 06:17:00,30.6,24.8,29.19,North,0,0.4,3.4,79,0.00,,,0.00,WUHU216HW,2013-03-02 11:17:00,
2013-03-02 06:22:00,30.4,24.7,29.19,WNW,293,1.1,3.6,79,0.00,,,0.00,WUHU216HW,2013-03-02 11:22:00,
2013-03-02 06:27:00,30.4,24.7,29.19,North,0,1.1,3.6,79,0.00,,,0.00,WUHU216HW,2013-03-02 11:27:00,
2013-03-02 06:32:00,30.6,24.8,29.19,NNW,338,0.9,3.4,79,0.00,,,0.00,WUHU216HW,2013-03-02 11:32:00,
2013-03-02 06:37:00,30.4,24.7,29.19,NNW,338,1.6,3.4,79,0.00,,,0.00,WUHU216HW,2013-03-02 11:37:00,
2013-03-02 06:42:00,30.6,24.8,29.19,NNW,338,1.6,3.6,79,0.00,,,0.00,WUHU216HW,2013-03-02 11:42:00,
2013-03-02 06:47:00,30.6,24.8,29.19,North,0,1.6,6.0,79,0.00,,,0.00,WUHU216HW,2013-03-02 11:47:00,
2013-03-02 06:52:00,30.8,25.0,29.19,NE,45,3.1,6.0,79,0.00,,,0.00,WUHU216HW,2013-03-02 11:52:00,
2013-03-02 06:57:00,30.8,24.8,29.19,WNW,293,0.4,3.6,78,0.00,,,0.00,WUHU216HW,2013-03-02 11:57:00,
2013-03-02 07:03:00,31.0,24.9,29.19,NNW,338,0.4,3.6,78,0.00,,,0.00,WUHU216HW,2013-03-02 12:03:00,
2013-03-02 07:08:00,31.1,25.1,29.19,NNW,338,1.1,5.4,78,0.00,,,0.00,WUHU216HW,2013-03-02 12:08:00,
2013-03-02 07:13:00,31.3,25.3,29.19,NW,315,1.8,5.4,78,0.00,,,0.00,WUHU216HW,2013-03-02 12:13:00,
2013-03-02 07:18:00,31.5,25.5,29.19,NE,45,1.8,3.6,78,0.00,,,0.00,WUHU216HW,2013-03-02 12:18:00,
2013-03-02 07:23:00,31.9,25.8,29.19,NNW,338,0.7,4.0,78,0.00,,,0.00,WUHU216HW,2013-03-02 12:23:00,
2013-03-02 07:28:00,32.0,25.7,29.19,North,0,1.8,4.0,77,0.00,,,0.00,WUHU216HW,2013-03-02 12:28:00,
2013-03-02 07:33:00,32.0,25.7,29.19,NNE,23,4.9,4.9,77,0.00,,,0.00,WUHU216HW,2013-03-02 12:33:00,
2013-03-02 07:38:00,32.4,26.0,29.19,NE,45,0.0,4.9,77,0.00,,,0.00,WUHU216HW,2013-03-02 12:38:00,
2013-03-02 07:43:00,32.6,25.8,29.19,North,0,5.8,5.8,76,0.00,,,0.00,WUHU216HW,2013-03-02 12:43:00,
2013-03-02 07:48:00,32.8,25.7,29.19,NNW,338,0.7,6.0,75,0.00,,,0.00,WUHU216HW,2013-03-02 12:48:00,
2013-03-02 07:53:00,33.1,26.0,29.19,NNW,338,3.4,6.0,75,0.00,,,0.00,WUHU216HW,2013-03-02 12:53:00,
2013-03-02 07:58:00,33.5,26.0,29.19,NW,315,4.3,5.6,74,0.00,,,0.00,WUHU216HW,2013-03-02 12:58:00,
2013-03-02 08:03:00,33.7,25.8,29.19,North,0,2.0,6.3,73,0.00,,,0.00,WUHU216HW,2013-03-02 13:03:00,
2013-03-02 08:08:00,33.8,25.7,29.19,WNW,293,4.0,6.9,72,0.00,,,0.00,WUHU216HW,2013-03-02 13:08:00,
2013-03-02 08:13:00,34.0,25.6,29.19,NE,45,4.0,6.9,71,0.00,,,0.00,WUHU216HW,2013-03-02 13:13:00,
2013-03-02 08:19:00,34.2,25.8,29.19,North,0,6.3,8.5,71,0.00,,,0.00,WUHU216HW,2013-03-02 13:19:00,
2013-03-02 08:24:00,34.4,26.2,29.19,NNE,23,2.7,8.5,72,0.00,,,0.00,WUHU216HW,2013-03-02 13:24:00,
2013-03-02 08:29:00,34.6,26.1,29.20,NW,315,3.8,8.5,71,0.00,,,0.00,WUHU216HW,2013-03-02 13:29:00,
2013-03-02 08:34:00,34.9,26.5,29.20,North,0,2.7,8.5,71,0.00,,,0.00,WUHU216HW,2013-03-02 13:34:00,
2013-03-02 08:39:00,35.6,27.2,29.20,NW,315,3.6,6.9,71,0.00,,,0.00,WUHU216HW,2013-03-02 13:39:00,
2013-03-02 08:44:00,35.8,26.3,29.20,NW,315,4.3,9.6,68,0.00,,,0.00,WUHU216HW,2013-03-02 13:44:00,
2013-03-02 08:49:00,36.0,26.5,29.20,NNE,23,1.6,9.6,68,0.00,,,0.00,WUHU216HW,2013-03-02 13:49:00,
2013-03-02 08:55:00,36.4,26.8,29.20,WNW,293,1.3,5.4,68,0.00,,,0.00,WUHU216HW,2013-03-02 13:55:00,
2013-03-02 09:00:00,36.4,26.5,29.20,NNE,23,2.5,8.1,67,0.00,,,0.00,WUHU216HW,2013-03-02 14:00:00,
2013-03-02 09:05:00,36.4,26.5,29.20,North,0,4.0,8.7,67,0.00,,,0.00,WUHU216HW,2013-03-02 14:05:00,
2013-03-02 09:10:00,36.5,26.7,29.20,NW,315,3.4,8.7,67,0.00,,,0.00,WUHU216HW,2013-03-02 14:10:00,
2013-03-02 09:15:00,36.5,26.3,29.20,NW,315,3.8,8.7,66,0.00,,,0.00,WUHU216HW,2013-03-02 14:15:00,
2013-03-02 09:20:00,36.4,26.5,29.20,NNE,23,1.6,8.7,67,0.00,,,0.00,WUHU216HW,2013-03-02 14:20:00,
2013-03-02 09:25:00,36.5,26.7,29.20,NW,315,5.1,7.2,67,0.00,,,0.00,WUHU216HW,2013-03-02 14:25:00,
2013-03-02 09:30:00,36.7,26.8,29.20,North,0,4.7,7.2,67,0.00,,,0.00,WUHU216HW,2013-03-02 14:30:00,
2013-03-02 09:35:00,37.1,27.2,29.20,West,270,3.1,5.4,67,0.00,,,0.00,WUHU216HW,2013-03-02 14:35:00,
2013-03-02 09:40:00,36.9,27.0,29.20,NE,45,0.7,4.7,67,0.00,,,0.00,WUHU216HW,2013-03-02 14:40:00,
2013-03-02 09:46:00,36.9,26.6,29.20,NNW,338,1.1,4.7,66,0.00,,,0.00,WUHU216HW,2013-03-02 14:46:00,
2013-03-02 09:51:00,36.9,26.6,29.20,North,0,3.4,6.3,66,0.00,,,0.00,WUHU216HW,2013-03-02 14:51:00,
2013-03-02 09:56:00,36.9,27.0,29.20,NNW,338,3.4,6.3,67,0.00,,,0.00,WUHU216HW,2013-03-02 14:56:00,
2013-03-02 10:01:00,36.7,26.8,29.20,ENE,68,6.3,8.1,67,0.00,,,0.00,WUHU216HW,2013-03-02 15:01:00,
2013-03-02 10:06:00,36.9,26.6,29.20,NNW,338,2.9,9.4,66,0.00,,,0.00,WUHU216HW,2013-03-02 15:06:00,
2013-03-02 10:11:00,37.1,26.7,29.20,North,0,3.4,9.4,66,0.00,,,0.00,WUHU216HW,2013-03-02 15:11:00,
2013-03-02 10:16:00,37.4,27.5,29.19,NNE,23,1.8,6.7,67,0.00,,,0.00,WUHU216HW,2013-03-02 15:16:00,
2013-03-02 10:21:00,37.6,26.9,29.19,NNW,338,2.5,6.7,65,0.00,,,0.00,WUHU216HW,2013-03-02 15:21:00,
2013-03-02 10:26:00,37.8,27.1,29.19,NE,45,0.7,5.6,65,0.00,,,0.00,WUHU216HW,2013-03-02 15:26:00,
2013-03-02 10:31:00,37.8,27.1,29.19,NNE,23,0.7,8.5,65,0.00,,,0.00,WUHU216HW,2013-03-02 15:31:00,
2013-03-02 10:36:00,38.2,27.4,29.19,NNW,338,0.9,8.5,65,0.00,,,0.00,WUHU216HW,2013-03-02 15:36:00,
2013-03-02 10:41:00,38.3,27.2,29.19,North,0,7.2,7.6,64,0.00,,,0.00,WUHU216HW,2013-03-02 15:41:00,
2013-03-02 10:46:00,38.3,27.5,29.19,NE,45,0.4,7.2,65,0.00,,,0.00,WUHU216HW,2013-03-02 15:46:00,
2013-03-02 10:51:00,38.7,27.5,29.19,NNW,338,1.1,7.6,64,0.00,,,0.00,WUHU216HW,2013-03-02 15:51:00,
2013-03-02 10:56:00,38.9,27.3,29.19,North,0,1.8,7.6,63,0.00,,,0.00,WUHU216HW,2013-03-02 15:56:00,
2013-03-02 11:01:00,38.9,27.3,29.19,NNE,23,4.7,6.3,63,0.00,,,0.00,WUHU216HW,2013-03-02 16:01:00,
2013-03-02 11:06:00,38.7,27.1,29.19,NNE,23,5.1,6.3,63,0.00,,,0.00,WUHU216HW,2013-03-02 16:06:00,
2013-03-02 11:11:00,38.9,27.3,29.19,NW,315,4.0,6.7,63,0.00,,,0.00,WUHU216HW,2013-03-02 16:11:00,
2013-03-02 11:16:00,38.9,27.3,29.19,ESE,113,5.8,6.7,63,0.00,,,0.00,WUHU216HW,2013-03-02 16:16:00,
2013-03-02 11:22:00,39.1,27.5,29.19,NE,45,3.8,9.8,63,0.00,,,0.00,WUHU216HW,2013-03-02 16:22:00,
2013-03-02 11:27:00,39.2,27.6,29.19,WNW,293,0.4,9.8,63,0.00,,,0.00,WUHU216HW,2013-03-02 16:27:00,
2013-03-02 11:32:00,39.4,27.8,29.19,NNE,23,6.0,7.8,63,0.00,,,0.00,WUHU216HW,2013-03-02 16:32:00,
2013-03-02 11:37:00,39.4,27.8,29.19,North,0,2.0,7.8,63,0.00,,,0.00,WUHU216HW,2013-03-02 16:37:00,
2013-03-02 11:42:00,39.6,28.0,29.19,ENE,68,3.4,6.3,63,0.00,,,0.00,WUHU216HW,2013-03-02 16:42:00,
2013-03-02 11:47:00,40.0,28.4,29.18,North,0,3.6,7.4,63,0.00,,,0.00,WUHU216HW,2013-03-02 16:47:00,
2013-03-02 11:52:00,39.6,28.0,29.18,NE,45,4.7,7.4,63,0.00,,,0.00,WUHU216HW,2013-03-02 16:52:00,
2013-03-02 11:57:00,39.4,27.8,29.18,North,0,1.8,6.0,63,0.00,,,0.00,WUHU216HW,2013-03-02 16:57:00,
2013-03-02 12:02:00,39.4,27.8,29.18,North,0,1.8,6.0,63,0.00,,,0.00,WUHU216HW,2013-03-02 17:02:00,
2013-03-02 12:07:00,39.6,28.0,29.18,West,270,0.2,5.8,63,0.00,,,0.00,WUHU216HW,2013-03-02 17:07:00,
2013-03-02 12:12:00,39.8,28.2,29.17,NNE,23,2.0,5.4,63,0.00,,,0.00,WUHU216HW,2013-03-02 17:12:00,
2013-03-02 12:17:00,40.0,28.4,29.17,East,90,3.4,5.4,63,0.00,,,0.00,WUHU216HW,2013-03-02 17:17:00,
2013-03-02 12:22:00,40.1,28.5,29.17,East,90,1.1,5.4,63,0.00,,,0.00,WUHU216HW,2013-03-02 17:22:00,
2013-03-02 12:27:00,40.3,28.7,29.17,West,270,5.4,5.6,63,0.00,,,0.00,WUHU216HW,2013-03-02 17:27:00,
2013-03-02 12:32:00,40.3,28.7,29.17,NNE,23,1.1,5.6,63,0.00,,,0.00,WUHU216HW,2013-03-02 17:32:00,
2013-03-02 12:37:00,40.7,28.6,29.17,ENE,68,2.5,5.6,62,0.00,,,0.00,WUHU216HW,2013-03-02 17:37:00,
2013-03-02 12:42:00,40.5,28.4,29.16,NNE,23,2.2,5.6,62,0.00,,,0.00,WUHU216HW,2013-03-02 17:42:00,
2013-03-02 12:47:00,40.0,28.4,29.16,NW,315,1.1,4.9,63,0.00,,,0.00,WUHU216HW,2013-03-02 17:47:00,
2013-03-02 12:52:00,40.3,29.1,29.17,NNW,338,2.5,4.9,64,0.00,,,0.00,WUHU216HW,2013-03-02 17:52:00,
2013-03-02 12:57:00,40.0,28.7,29.16,WNW,293,1.8,4.5,64,0.00,,,0.00,WUHU216HW,2013-03-02 17:57:00,
2013-03-02 13:03:00,39.6,28.4,29.16,NNE,23,1.1,4.5,64,0.00,,,0.00,WUHU216HW,2013-03-02 18:03:00,
2013-03-02 13:08:00,39.2,28.4,29.16,North,0,1.3,6.3,65,0.00,,,0.00,WUHU216HW,2013-03-02 18:08:00,
2013-03-02 13:13:00,39.4,28.9,29.16,NNE,23,2.0,6.3,66,0.00,,,0.00,WUHU216HW,2013-03-02 18:13:00,
2013-03-02 13:18:00,39.2,28.7,29.17,West,270,2.5,4.5,66,0.00,,,0.00,WUHU216HW,2013-03-02 18:18:00,
2013-03-02 13:23:00,39.1,28.5,29.16,WNW,293,3.4,5.4,66,0.00,,,0.00,WUHU216HW,2013-03-02 18:23:00,
2013-03-02 13:28:00,39.2,29.1,29.16,NNW,338,2.5,5.8,67,0.00,,,0.00,WUHU216HW,2013-03-02 18:28:00,
2013-03-02 13:33:00,39.4,28.9,29.16,West,270,2.5,5.8,66,0.00,,,0.00,WUHU216HW,2013-03-02 18:33:00,
2013-03-02 13:38:00,39.6,29.1,29.16,NNW,338,0.9,4.0,66,0.00,,,0.00,WUHU216HW,2013-03-02 18:38:00,
2013-03-02 13:43:00,39.8,29.3,29.16,North,0,1.1,3.6,66,0.00,,,0.00,WUHU216HW,2013-03-02 18:43:00,
2013-03-02 13:48:00,39.6,29.1,29.16,NW,315,1.1,5.6,66,0.00,,,0.00,WUHU216HW,2013-03-02 18:48:00,
2013-03-02 13:53:00,39.6,29.1,29.16,NNW,338,1.3,5.6,66,0.00,,,0.00,WUHU216HW,2013-03-02 18:53:00,
2013-03-02 13:58:00,39.6,29.1,29.16,West,270,1.8,2.9,66,0.00,,,0.00,WUHU216HW,2013-03-02 18:58:00,
2013-03-02 14:03:00,39.8,29.3,29.16,NE,45,0.4,3.4,66,0.00,,,0.00,WUHU216HW,2013-03-02 19:03:00,
2013-03-02 14:08:00,39.6,29.1,29.16,NNW,338,0.4,3.4,66,0.00,,,0.00,WUHU216HW,2013-03-02 19:08:00,
2013-03-02 14:13:00,39.8,29.3,29.16,WNW,293,0.9,2.5,66,0.00,,,0.00,WUHU216HW,2013-03-02 19:13:00,
2013-03-02 14:18:00,39.8,29.3,29.16,North,0,1.3,2.9,66,0.00,,,0.00,WUHU216HW,2013-03-02 19:18:00,
2013-03-02 14:23:00,39.4,28.9,29.16,West,270,2.2,4.0,66,0.00,,,0.00,WUHU216HW,2013-03-02 19:23:00,
2013-03-02 14:28:00,39.2,28.7,29.16,WNW,293,0.7,4.0,66,0.00,,,0.00,WUHU216HW,2013-03-02 19:28:00,
2013-03-02 14:33:00,39.4,28.9,29.16,WNW,293,3.4,4.7,66,0.00,,,0.00,WUHU216HW,2013-03-02 19:33:00,
2013-03-02 14:38:00,39.4,28.9,29.16,NNE,23,1.1,4.7,66,0.00,,,0.00,WUHU216HW,2013-03-02 19:38:00,
2013-03-02 14:43:00,39.8,29.3,29.16,NW,315,1.3,2.7,66,0.00,,,0.00,WUHU216HW,2013-03-02 19:43:00,
2013-03-02 14:48:00,40.0,29.4,29.16,WSW,248,1.3,3.6,66,0.00,,,0.00,WUHU216HW,2013-03-02 19:48:00,
2013-03-02 14:54:00,40.0,28.7,29.16,NW,315,3.4,3.6,64,0.00,,,0.00,WUHU216HW,2013-03-02 19:54:00,
2013-03-02 14:59:00,39.8,28.9,29.16,NNE,23,1.3,3.4,65,0.00,,,0.00,WUHU216HW,2013-03-02 19:59:00,
2013-03-02 15:04:00,39.6,28.4,29.16,NNW,338,3.4,4.0,64,0.00,,,0.00,WUHU216HW,2013-03-02 20:04:00,
2013-03-02 15:09:00,39.4,28.5,29.16,NW,315,1.6,4.0,65,0.00,,,0.00,WUHU216HW,2013-03-02 20:09:00,
2013-03-02 15:14:00,39.2,28.4,29.16,North,0,0.4,3.6,65,0.00,,,0.00,WUHU216HW,2013-03-02 20:14:00,
2013-03-02 15:19:00,39.2,28.7,29.16,NNW,338,0.4,3.6,66,0.00,,,0.00,WUHU216HW,2013-03-02 20:19:00,
2013-03-02 15:24:00,39.2,28.7,29.16,NW,315,2.2,4.3,66,0.00,,,0.00,WUHU216HW,2013-03-02 20:24:00,
2013-03-02 15:29:00,39.1,28.5,29.16,WNW,293,1.1,4.3,66,0.00,,,0.00,WUHU216HW,2013-03-02 20:29:00,
2013-03-02 15:34:00,38.9,28.5,29.16,NW,315,0.4,2.7,66,0.00,,,0.00,WUHU216HW,2013-03-02 20:34:00,
2013-03-02 15:39:00,38.9,28.5,29.16,NNW,338,0.9,2.5,66,0.00,,,0.00,WUHU216HW,2013-03-02 20:39:00,
2013-03-02 15:44:00,38.7,28.3,29.16,North,0,1.1,2.2,66,0.00,,,0.00,WUHU216HW,2013-03-02 20:44:00,
2013-03-02 15:49:00,38.5,28.1,29.15,NW,315,1.1,2.0,66,0.00,,,0.00,WUHU216HW,2013-03-02 20:49:00,
2013-03-02 15:54:00,38.5,28.1,29.16,NW,315,2.7,4.7,66,0.00,,,0.00,WUHU216HW,2013-03-02 20:54:00,
2013-03-02 15:59:00,38.3,28.3,29.15,NNW,338,0.2,4.7,67,0.00,,,0.00,WUHU216HW,2013-03-02 20:59:00,
2013-03-02 16:04:00,38.3,27.9,29.15,NNW,338,0.7,3.4,66,0.00,,,0.00,WUHU216HW,2013-03-02 21:04:00,
2013-03-02 16:09:00,38.2,28.2,29.16,North,0,4.0,6.3,67,0.00,,,0.00,WUHU216HW,2013-03-02 21:09:00,
2013-03-02 16:14:00,38.0,28.0,29.16,North,0,0.7,6.3,67,0.00,,,0.00,WUHU216HW,2013-03-02 21:14:00,
2013-03-02 16:19:00,38.0,28.0,29.16,North,0,1.3,4.7,67,0.00,,,0.00,WUHU216HW,2013-03-02 21:19:00,
2013-03-02 16:24:00,37.8,27.8,29.16,North,0,0.9,3.8,67,0.00,,,0.00,WUHU216HW,2013-03-02 21:24:00,
2013-03-02 16:29:00,37.8,28.2,29.16,North,0,1.8,6.3,68,0.00,,,0.00,WUHU216HW,2013-03-02 21:29:00,
2013-03-02 16:34:00,37.6,27.6,29.16,North,0,2.9,6.3,67,0.00,,,0.00,WUHU216HW,2013-03-02 21:34:00,
2013-03-02 16:39:00,37.4,27.9,29.16,NNW,338,0.2,6.3,68,0.00,,,0.00,WUHU216HW,2013-03-02 21:39:00,
2013-03-02 16:44:00,37.4,27.9,29.16,North,0,2.5,6.3,68,0.00,,,0.00,WUHU216HW,2013-03-02 21:44:00,
2013-03-02 16:50:00,37.3,27.7,29.16,NNW,338,0.4,4.7,68,0.00,,,0.00,WUHU216HW,2013-03-02 21:50:00,
2013-03-02 16:55:00,37.1,27.6,29.16,NNW,338,1.8,4.0,68,0.00,,,0.00,WUHU216HW,2013-03-02 21:55:00,
2013-03-02 17:00:00,37.1,27.9,29.16,North,0,1.8,6.3,69,0.00,,,0.00,WUHU216HW,2013-03-02 22:00:00,
2013-03-02 17:05:00,37.1,27.9,29.16,NNW,338,1.3,6.3,69,0.00,,,0.00,WUHU216HW,2013-03-02 22:05:00,
2013-03-02 17:10:00,36.9,27.7,29.16,NNW,338,0.4,6.0,69,0.00,,,0.00,WUHU216HW,2013-03-02 22:10:00,
2013-03-02 17:15:00,36.7,27.6,29.16,NNE,23,2.0,3.4,69,0.00,,,0.00,WUHU216HW,2013-03-02 22:15:00,
2013-03-02 17:20:00,36.7,27.6,29.17,NNE,23,1.1,4.9,69,0.00,,,0.00,WUHU216HW,2013-03-02 22:20:00,
2013-03-02 17:25:00,36.5,27.4,29.17,NNW,338,4.0,4.9,69,0.00,,,0.00,WUHU216HW,2013-03-02 22:25:00,
2013-03-02 17:30:00,36.5,27.4,29.17,North,0,1.3,4.0,69,0.00,,,0.00,WUHU216HW,2013-03-02 22:30:00,
2013-03-02 17:35:00,36.4,27.5,29.17,NNE,23,3.6,4.9,70,0.00,,,0.00,WUHU216HW,2013-03-02 22:35:00,
2013-03-02 17:40:00,36.4,27.5,29.17,NNE,23,1.1,4.9,70,0.00,,,0.00,WUHU216HW,2013-03-02 22:40:00,
2013-03-02 17:45:00,36.4,27.5,29.17,NW,315,0.4,4.5,70,0.00,,,0.00,WUHU216HW,2013-03-02 22:45:00,
2013-03-02 17:50:00,36.4,27.5,29.17,ENE,68,0.4,4.5,70,0.00,,,0.00,WUHU216HW,2013-03-02 22:50:00,
2013-03-02 17:55:00,36.2,27.4,29.17,NNW,338,0.9,3.6,70,0.00,,,0.00,WUHU216HW,2013-03-02 22:55:00,
2013-03-02 18:00:00,36.2,27.4,29.17,North,0,0.2,5.8,70,0.00,,,0.00,WUHU216HW,2013-03-02 23:00:00,
2013-03-02 18:05:00,36.2,27.4,29.18,North,0,2.5,5.8,70,0.00,,,0.00,WUHU216HW,2013-03-02 23:05:00,
2013-03-02 18:10:00,36.0,27.2,29.18,NW,315,1.6,3.4,70,0.00,,,0.00,WUHU216HW,2013-03-02 23:10:00,
2013-03-02 18:15:00,36.0,27.2,29.18,NNW,338,1.1,3.4,70,0.00,,,0.00,WUHU216HW,2013-03-02 23:15:00,
2013-03-02 18:20:00,36.0,27.2,29.18,NNW,338,1.1,4.5,70,0.00,,,0.00,WUHU216HW,2013-03-02 23:20:00,
2013-03-02 18:26:00,36.0,27.6,29.18,NW,315,2.2,4.5,71,0.00,,,0.00,WUHU216HW,2013-03-02 23:26:00,
2013-03-02 18:31:00,35.8,27.0,29.19,NW,315,0.4,2.7,70,0.00,,,0.00,WUHU216HW,2013-03-02 23:31:00,
2013-03-02 18:36:00,35.8,27.0,29.19,NNW,338,0.7,2.2,70,0.00,,,0.00,WUHU216HW,2013-03-02 23:36:00,
2013-03-02 18:41:00,35.8,27.4,29.18,NW,315,0.9,2.7,71,0.00,,,0.00,WUHU216HW,2013-03-02 23:41:00,
2013-03-02 18:46:00,35.6,27.2,29.18,NNW,338,1.3,2.7,71,0.00,,,0.00,WUHU216HW,2013-03-02 23:46:00,
2013-03-02 18:51:00,35.6,27.2,29.19,West,270,0.2,4.0,71,0.00,,,0.00,WUHU216HW,2013-03-02 23:51:00,
2013-03-02 18:56:00,35.6,27.2,29.19,North,0,0.4,4.7,71,0.00,,,0.00,WUHU216HW,2013-03-02 23:56:00,
2013-03-02 19:01:00,35.5,27.0,29.18,NNW,338,2.2,6.0,71,0.00,,,0.00,WUHU216HW,2013-03-03 00:01:00,
2013-03-02 19:06:00,35.5,26.6,29.18,NNE,23,3.4,6.0,70,0.00,,,0.00,WUHU216HW,2013-03-03 00:06:00,
2013-03-02 19:11:00,35.5,26.6,29.18,NNW,338,1.1,6.7,70,0.00,,,0.00,WUHU216HW,2013-03-03 00:11:00,
2013-03-02 19:16:00,35.5,26.6,29.19,NNW,338,1.8,6.7,70,0.00,,,0.00,WUHU216HW,2013-03-03 00:16:00,
2013-03-02 19:21:00,35.3,26.5,29.18,NW,315,0.9,4.0,70,0.00,,,0.00,WUHU216HW,2013-03-03 00:21:00,
2013-03-02 19:26:00,35.3,26.5,29.19,NNW,338,0.2,4.9,70,0.00,,,0.00,WUHU216HW,2013-03-03 00:26:00,
2013-03-02 19:31:00,35.3,26.5,29.19,North,0,0.2,4.9,70,0.00,,,0.00,WUHU216HW,2013-03-03 00:31:00,
2013-03-02 19:36:00,35.3,26.5,29.19,NNW,338,0.7,2.9,70,0.00,,,0.00,WUHU216HW,2013-03-03 00:36:00,
2013-03-02 19:41:00,35.1,25.9,29.19,NW,315,1.8,2.9,69,0.00,,,0.00,WUHU216HW,2013-03-03 00:41:00,
2013-03-02 19:47:00,35.1,25.9,29.19,NNW,338,1.1,3.6,69,0.00,,,0.00,WUHU216HW,2013-03-03 00:47:00,
2013-03-02 19:52:00,35.1,25.9,29.19,North,0,3.8,5.4,69,0.00,,,0.00,WUHU216HW,2013-03-03 00:52:00,
2013-03-02 19:57:00,34.9,25.7,29.19,NNW,338,3.1,5.4,69,0.00,,,0.00,WUHU216HW,2013-03-03 00:57:00,
2013-03-02 20:02:00,34.9,25.7,29.19,NW,315,3.1,5.1,69,0.00,,,0.00,WUHU216HW,2013-03-03 01:02:00,
2013-03-02 20:07:00,34.9,25.7,29.19,North,0,3.1,5.1,69,0.00,,,0.00,WUHU216HW,2013-03-03 01:07:00,
2013-03-02 20:12:00,34.7,25.6,29.19,NNW,338,2.5,4.7,69,0.00,,,0.00,WUHU216HW,2013-03-03 01:12:00,
2013-03-02 20:17:00,34.7,25.6,29.19,NNW,338,1.6,4.7,69,0.00,,,0.00,WUHU216HW,2013-03-03 01:17:00,
2013-03-02 20:22:00,34.6,25.7,29.19,NW,315,0.7,4.7,70,0.00,,,0.00,WUHU216HW,2013-03-03 01:22:00,
2013-03-02 20:27:00,34.6,25.7,29.20,NNW,338,1.1,3.4,70,0.00,,,0.00,WUHU216HW,2013-03-03 01:27:00,
2013-03-02 20:32:00,34.4,25.6,29.20,NNW,338,5.6,5.6,70,0.00,,,0.00,WUHU216HW,2013-03-03 01:32:00,
2013-03-02 20:37:00,34.4,25.9,29.20,North,0,1.6,5.6,71,0.00,,,0.00,WUHU216HW,2013-03-03 01:37:00,
2013-03-02 20:42:00,34.2,25.4,29.20,NW,315,0.7,3.8,70,0.00,,,0.00,WUHU216HW,2013-03-03 01:42:00,
2013-03-02 20:47:00,34.2,25.4,29.20,NNW,338,0.4,2.7,70,0.00,,,0.00,WUHU216HW,2013-03-03 01:47:00,
2013-03-02 20:52:00,34.2,25.8,29.20,NNW,338,2.5,2.7,71,0.00,,,0.00,WUHU216HW,2013-03-03 01:52:00,
2013-03-02 20:57:00,34.0,25.6,29.20,North,0,1.1,4.0,71,0.00,,,0.00,WUHU216HW,2013-03-03 01:57:00,
2013-03-02 21:02:00,34.0,25.6,29.20,NNW,338,2.9,6.9,71,0.00,,,0.00,WUHU216HW,2013-03-03 02:02:00,
2013-03-02 21:07:00,33.8,25.7,29.19,NW,315,1.1,6.9,72,0.00,,,0.00,WUHU216HW,2013-03-03 02:07:00,
2013-03-02 21:12:00,33.7,25.8,29.20,NNW,338,5.1,6.5,73,0.00,,,0.00,WUHU216HW,2013-03-03 02:12:00,
2013-03-02 21:17:00,33.5,25.7,29.20,North,0,0.4,6.5,73,0.00,,,0.00,WUHU216HW,2013-03-03 02:17:00,
2013-03-02 21:22:00,33.5,25.7,29.20,NNW,338,1.1,3.6,73,0.00,,,0.00,WUHU216HW,2013-03-03 02:22:00,
2013-03-02 21:28:00,33.5,26.0,29.20,South,180,1.3,3.8,74,0.00,,,0.00,WUHU216HW,2013-03-03 02:28:00,
2013-03-02 21:33:00,33.5,25.7,29.19,North,0,2.9,3.8,73,0.00,,,0.00,WUHU216HW,2013-03-03 02:33:00,
2013-03-02 21:38:00,33.3,25.8,29.19,NNE,23,3.4,6.9,74,0.00,,,0.00,WUHU216HW,2013-03-03 02:38:00,
2013-03-02 21:43:00,33.1,25.7,29.19,NNW,338,0.9,6.9,74,0.00,,,0.00,WUHU216HW,2013-03-03 02:43:00,
2013-03-02 21:48:00,33.1,26.0,29.19,NE,45,0.4,3.4,75,0.00,,,0.00,WUHU216HW,2013-03-03 02:48:00,
2013-03-02 21:53:00,33.1,26.0,29.19,NE,45,1.6,4.7,75,0.00,,,0.00,WUHU216HW,2013-03-03 02:53:00,
2013-03-02 21:58:00,32.9,25.8,29.19,North,0,1.8,4.7,75,0.00,,,0.00,WUHU216HW,2013-03-03 02:58:00,
2013-03-02 22:03:00,32.9,26.2,29.19,NW,315,2.9,3.8,76,0.00,,,0.00,WUHU216HW,2013-03-03 03:03:00,
2013-03-02 22:08:00,32.9,26.2,29.19,North,0,1.6,3.8,76,0.00,,,0.00,WUHU216HW,2013-03-03 03:08:00,
2013-03-02 22:13:00,32.8,26.0,29.19,NNW,338,3.8,4.9,76,0.00,,,0.00,WUHU216HW,2013-03-03 03:13:00,
2013-03-02 22:18:00,32.8,26.0,29.18,NNW,338,0.7,4.9,76,0.00,,,0.00,WUHU216HW,2013-03-03 03:18:00,
2013-03-02 22:23:00,32.8,26.0,29.18,North,0,1.1,4.0,76,0.00,,,0.00,WUHU216HW,2013-03-03 03:23:00,
2013-03-02 22:28:00,32.6,25.8,29.18,NW,315,0.0,4.0,76,0.00,,,0.00,WUHU216HW,2013-03-03 03:28:00,
2013-03-02 22:34:00,32.6,25.8,29.18,NNW,338,2.0,4.7,76,0.00,,,0.00,WUHU216HW,2013-03-03 03:34:00,
2013-03-02 22:39:00,32.4,25.7,29.18,North,0,2.7,5.1,76,0.00,,,0.00,WUHU216HW,2013-03-03 03:39:00,
2013-03-02 22:44:00,32.4,25.7,29.18,North,0,1.1,5.1,76,0.00,,,0.00,WUHU216HW,2013-03-03 03:44:00,
2013-03-02 22:49:00,32.4,25.7,29.18,SE,135,1.1,4.0,76,0.00,,,0.00,WUHU216HW,2013-03-03 03:49:00,
2013-03-02 22:54:00,32.4,25.7,29.18,NNW,338,2.5,7.8,76,0.00,,,0.00,WUHU216HW,2013-03-03 03:54:00,
2013-03-02 22:59:00,32.2,25.5,29.18,NNW,338,1.8,7.8,76,0.00,,,0.00,WUHU216HW,2013-03-03 03:59:00,
2013-03-02 23:04:00,32.2,25.5,29.17,ENE,68,0.4,5.8,76,0.00,,,0.00,WUHU216HW,2013-03-03 04:04:00,
2013-03-02 23:09:00,32.2,25.5,29.17,NNW,338,1.1,3.1,76,0.00,,,0.00,WUHU216HW,2013-03-03 04:09:00,
2013-03-02 23:14:00,32.0,25.4,29.17,SW,225,1.1,3.6,76,0.00,,,0.00,WUHU216HW,2013-03-03 04:14:00,
2013-03-02 23:19:00,32.0,25.4,29.17,North,0,1.8,4.3,76,0.00,,,0.00,WUHU216HW,2013-03-03 04:19:00,
2013-03-02 23:24:00,32.0,25.4,29.17,NNW,338,2.2,4.3,76,0.00,,,0.00,WUHU216HW,2013-03-03 04:24:00,
2013-03-02 23:29:00,32.0,25.4,29.17,WNW,293,1.1,4.0,76,0.00,,,0.00,WUHU216HW,2013-03-03 04:29:00,
2013-03-02 23:35:00,31.9,25.2,29.17,NNW,338,0.4,4.9,76,0.00,,,0.00,WUHU216HW,2013-03-03 04:35:00,
2013-03-02 23:40:00,31.9,25.2,29.17,NNE,23,3.4,4.9,76,0.00,,,0.00,WUHU216HW,2013-03-03 04:40:00,
2013-03-02 23:45:00,31.7,25.0,29.17,NNW,338,1.1,6.0,76,0.00,,,0.00,WUHU216HW,2013-03-03 04:45:00,
2013-03-02 23:50:00,31.7,25.0,29.17,NE,45,4.3,6.0,76,0.00,,,0.00,WUHU216HW,2013-03-03 04:50:00,
2013-03-02 23:55:00,31.7,25.0,29.17,NNE,23,0.9,5.4,76,0.00,,,0.00,WUHU216HW,2013-03-03 04:55:00,